Station Historical Data
Daily Summary for October 1, 2017 Units:  English    Metric   Both
« Previous Day
Next Day »
Daily Weekly Monthly Yearly Custom
  High: Low: Average:
Temperature: 65.4 °F 36.5 °F 50.4 °F
Dew Point: 46.8 °F 34.1 °F 40.1 °F
Humidity: 91% 39% 71%
Wind Speed: 6.0mph 0.0mph 0.8mph
Wind Gust: 9.0mph - -
Wind- - ESE
Pressure: 30.46 in 30.30 in -
Precipitation: 0.00 in    
Historical Graphs
 
 
Tabular Data for October 1, 2017
Time Temperature Dew Point Pressure Wind Wind Speed Wind Gust Humidity Rainfall Rate (Hourly)
00:04 42.3 °F 38.4 °F 30.42 in Calm     86% 0.00 in
00:09 42.3 °F 38.4 °F 30.42 in Calm     86% 0.00 in
00:14 42.2 °F 38.3 °F 30.42 in Calm     86% 0.00 in
00:19 42.0 °F 38.1 °F 30.42 in Calm     86% 0.00 in
00:24 41.8 °F 38.2 °F 30.42 in Calm     87% 0.00 in
00:29 41.8 °F 38.2 °F 30.42 in Calm     87% 0.00 in
00:34 41.5 °F 37.9 °F 30.42 in Calm     87% 0.00 in
00:39 41.3 °F 37.7 °F 30.42 in Calm     87% 0.00 in
00:44 41.1 °F 37.5 °F 30.42 in Calm     87% 0.00 in
00:49 41.1 °F 37.8 °F 30.42 in Calm     88% 0.00 in
00:54 41.0 °F 37.7 °F 30.41 in Calm     88% 0.00 in
00:59 40.8 °F 37.5 °F 30.41 in Calm     88% 0.00 in
01:05 40.6 °F 37.3 °F 30.42 in Calm     88% 0.00 in
01:10 40.3 °F 37.0 °F 30.42 in Calm     88% 0.00 in
01:15 40.4 °F 37.4 °F 30.42 in Calm     89% 0.00 in
01:20 40.5 °F 37.5 °F 30.42 in Calm     89% 0.00 in
01:25 40.4 °F 37.4 °F 30.42 in Calm     89% 0.00 in
01:30 40.4 °F 37.4 °F 30.42 in Calm     89% 0.00 in
01:35 40.3 °F 37.3 °F 30.42 in Calm     89% 0.00 in
01:40 40.1 °F 37.1 °F 30.42 in Calm     89% 0.00 in
01:45 40.1 °F 37.1 °F 30.42 in Calm     89% 0.00 in
01:50 40.0 °F 37.0 °F 30.42 in Calm     89% 0.00 in
01:55 39.8 °F 36.8 °F 30.42 in Calm     89% 0.00 in
02:00 39.8 °F 36.8 °F 30.42 in Calm     89% 0.00 in
02:05 39.8 °F 36.8 °F 30.42 in Calm     89% 0.00 in
02:10 39.7 °F 36.7 °F 30.42 in Calm     89% 0.00 in
02:15 39.4 °F 36.4 °F 30.42 in Calm     89% 0.00 in
02:20 39.2 °F 36.2 °F 30.42 in Calm     89% 0.00 in
02:25 39.0 °F 36.0 °F 30.43 in Calm     89% 0.00 in
02:30 39.2 °F 36.5 °F 30.42 in Calm     90% 0.00 in
02:35 39.4 °F 36.7 °F 30.42 in Calm     90% 0.00 in
02:40 39.3 °F 36.6 °F 30.42 in Calm     90% 0.00 in
02:45 39.4 °F 36.7 °F 30.42 in Calm     90% 0.00 in
02:50 39.3 °F 36.3 °F 30.42 in Calm     89% 0.00 in
02:55 39.2 °F 36.5 °F 30.42 in Calm     90% 0.00 in
03:00 39.0 °F 36.3 °F 30.42 in Calm     90% 0.00 in
03:05 38.9 °F 36.2 °F 30.42 in Calm     90% 0.00 in
03:10 38.9 °F 36.2 °F 30.42 in Calm     90% 0.00 in
03:15 38.8 °F 36.1 °F 30.42 in Calm     90% 0.00 in
03:20 38.7 °F 36.0 °F 30.41 in Calm     90% 0.00 in
03:25 38.8 °F 36.1 °F 30.42 in Calm     90% 0.00 in
03:30 38.6 °F 35.9 °F 30.42 in Calm     90% 0.00 in
03:35 38.6 °F 35.9 °F 30.42 in Calm     90% 0.00 in
03:40 38.6 °F 35.9 °F 30.41 in Calm     90% 0.00 in
03:45 38.7 °F 36.0 °F 30.41 in Calm     90% 0.00 in
03:50 38.6 °F 35.9 °F 30.42 in Calm     90% 0.00 in
03:55 38.6 °F 35.9 °F 30.41 in Calm     90% 0.00 in
04:00 38.5 °F 35.8 °F 30.41 in Calm     90% 0.00 in
04:05 38.3 °F 35.6 °F 30.41 in Calm     90% 0.00 in
04:10 38.2 °F 35.5 °F 30.41 in Calm     90% 0.00 in
04:15 38.1 °F 35.4 °F 30.41 in Calm     90% 0.00 in
04:20 38.2 °F 35.5 °F 30.41 in Calm     90% 0.00 in
04:25 38.1 °F 35.4 °F 30.41 in Calm     90% 0.00 in
04:30 38.1 °F 35.4 °F 30.41 in Calm     90% 0.00 in
04:35 38.0 °F 35.3 °F 30.41 in Calm     90% 0.00 in
04:40 37.9 °F 35.2 °F 30.41 in Calm     90% 0.00 in
04:45 37.9 °F 35.2 °F 30.41 in Calm     90% 0.00 in
04:50 37.9 °F 35.2 °F 30.41 in Calm     90% 0.00 in
04:55 37.9 °F 35.2 °F 30.41 in Calm     90% 0.00 in
05:00 37.9 °F 35.2 °F 30.42 in Calm     90% 0.00 in
05:05 37.8 °F 35.1 °F 30.42 in Calm     90% 0.00 in
05:10 37.5 °F 34.8 °F 30.42 in Calm     90% 0.00 in
05:15 37.4 °F 34.7 °F 30.42 in Calm     90% 0.00 in
05:20 37.5 °F 34.8 °F 30.42 in Calm     90% 0.00 in
05:25 37.3 °F 34.6 °F 30.42 in Calm     90% 0.00 in
05:30 37.2 °F 34.5 °F 30.42 in Calm     90% 0.00 in
05:35 37.1 °F 34.4 °F 30.42 in Calm     90% 0.00 in
05:40 37.0 °F 34.3 °F 30.42 in Calm     90% 0.00 in
05:44 36.9 °F 34.2 °F 30.42 in Calm     90% 0.00 in
05:50 36.8 °F 34.1 °F 30.42 in Calm     90% 0.00 in
05:55 36.6 °F 34.2 °F 30.43 in Calm     91% 0.00 in
05:59 36.7 °F 34.3 °F 30.42 in Calm     91% 0.00 in
06:05 36.7 °F 34.3 °F 30.42 in Calm     91% 0.00 in
06:10 36.6 °F 34.2 °F 30.42 in Calm     91% 0.00 in
06:15 36.7 °F 34.3 °F 30.42 in Calm     91% 0.00 in
06:20 36.9 °F 34.5 °F 30.42 in Calm     91% 0.00 in
06:25 36.9 °F 34.5 °F 30.43 in Calm     91% 0.00 in
06:30 36.7 °F 34.3 °F 30.42 in Calm     91% 0.00 in
06:35 36.6 °F 34.2 °F 30.42 in Calm     91% 0.00 in
06:40 36.7 °F 34.3 °F 30.43 in Calm     91% 0.00 in
06:45 36.6 °F 34.2 °F 30.42 in Calm     91% 0.00 in
06:50 36.6 °F 34.2 °F 30.43 in Calm     91% 0.00 in
06:55 36.5 °F 34.1 °F 30.43 in Calm     91% 0.00 in
07:00 36.6 °F 34.2 °F 30.43 in Calm     91% 0.00 in
07:05 36.7 °F 34.3 °F 30.43 in Calm     91% 0.00 in
07:10 36.8 °F 34.4 °F 30.43 in Calm     91% 0.00 in
07:15 36.9 °F 34.5 °F 30.43 in Calm     91% 0.00 in
07:20 36.9 °F 34.5 °F 30.43 in Calm     91% 0.00 in
07:25 36.8 °F 34.4 °F 30.44 in Calm     91% 0.00 in
07:30 36.7 °F 34.3 °F 30.44 in Calm     91% 0.00 in
07:35 36.7 °F 34.3 °F 30.44 in Calm     91% 0.00 in
07:40 36.9 °F 34.5 °F 30.44 in Calm     91% 0.00 in
07:45 37.2 °F 34.8 °F 30.44 in Calm     91% 0.00 in
07:50 37.4 °F 35.0 °F 30.44 in Calm     91% 0.00 in
07:55 37.7 °F 35.3 °F 30.44 in Calm     91% 0.00 in
08:00 38.0 °F 35.6 °F 30.44 in Calm     91% 0.00 in
08:04 38.3 °F 35.9 °F 30.44 in Calm     91% 0.00 in
08:09 38.6 °F 36.2 °F 30.44 in Calm     91% 0.00 in
08:15 39.1 °F 36.7 °F 30.44 in Calm     91% 0.00 in
08:20 39.5 °F 37.1 °F 30.44 in Calm     91% 0.00 in
08:25 39.9 °F 37.5 °F 30.44 in Calm     91% 0.00 in
08:30 40.4 °F 37.7 °F 30.44 in Calm     90% 0.00 in
08:35 41.0 °F 38.3 °F 30.45 in Calm     90% 0.00 in
08:40 41.9 °F 38.9 °F 30.45 in Calm     89% 0.00 in
08:44 42.6 °F 39.3 °F 30.45 in Calm     88% 0.00 in
08:50 43.3 °F 39.4 °F 30.45 in Calm     86% 0.00 in
08:55 44.1 °F 39.9 °F 30.45 in Calm     85% 0.00 in
09:00 45.0 °F 40.1 °F 30.45 in Calm     83% 0.00 in
09:05 45.7 °F 40.5 °F 30.45 in Calm     82% 0.00 in
09:09 46.0 °F 40.5 °F 30.45 in Calm     81% 0.00 in
09:14 46.7 °F 41.2 °F 30.45 in Calm     81% 0.00 in
09:19 47.4 °F 41.2 °F 30.45 in Calm     79% 0.00 in
09:24 48.3 °F 41.8 °F 30.46 in Calm     78% 0.00 in
09:29 48.5 °F 41.3 °F 30.45 in SSW 2.0 mph 5.0 mph 76% 0.00 in
09:34 48.9 °F 41.7 °F 30.45 in SSW 2.0 mph 3.0 mph 76% 0.00 in
09:40 49.3 °F 41.7 °F 30.45 in SSW 1.0 mph 3.0 mph 75% 0.00 in
09:44 50.3 °F 42.3 °F 30.45 in Calm   3.0 mph 74% 0.00 in
09:49 50.3 °F 42.0 °F 30.45 in Calm   2.0 mph 73% 0.00 in
09:55 51.1 °F 42.7 °F 30.45 in Calm   3.0 mph 73% 0.00 in
10:05 52.0 °F 42.5 °F 30.45 in Calm   3.0 mph 70% 0.00 in
10:09 52.6 °F 42.7 °F 30.45 in SSW 1.0 mph 4.0 mph 69% 0.00 in
10:14 53.0 °F 42.3 °F 30.45 in South 2.0 mph 4.0 mph 67% 0.00 in
10:19 52.8 °F 42.1 °F 30.45 in Calm   3.0 mph 67% 0.00 in
10:24 53.8 °F 43.9 °F 30.45 in Calm   3.0 mph 69% 0.00 in
10:29 54.1 °F 43.0 °F 30.45 in SSW 1.0 mph 2.0 mph 66% 0.00 in
10:39 54.7 °F 43.6 °F 30.45 in SSW 1.0 mph 4.0 mph 66% 0.00 in
10:44 55.6 °F 42.4 °F 30.45 in WSW 1.0 mph 3.0 mph 61% 0.00 in
10:50 56.0 °F 41.4 °F 30.44 in WSW 1.0 mph 3.0 mph 58% 0.00 in
10:54 56.4 °F 43.1 °F 30.44 in Calm   2.0 mph 61% 0.00 in
11:00 56.4 °F 41.8 °F 30.44 in WNW 1.0 mph 3.0 mph 58% 0.00 in
11:05 57.1 °F 42.5 °F 30.44 in SSE 1.0 mph 3.0 mph 58% 0.00 in
11:09 57.0 °F 41.9 °F 30.44 in SSE 2.0 mph 5.0 mph 57% 0.00 in
11:15 57.5 °F 42.8 °F 30.43 in SSE 2.0 mph 5.0 mph 58% 0.00 in
11:19 57.5 °F 42.8 °F 30.43 in SSE 1.0 mph 4.0 mph 58% 0.00 in
11:24 58.0 °F 42.8 °F 30.43 in SE 3.0 mph 4.0 mph 57% 0.00 in
11:29 57.7 °F 42.1 °F 30.43 in SE 3.0 mph 4.0 mph 56% 0.00 in
11:34 58.5 °F 43.3 °F 30.42 in Calm   5.0 mph 57% 0.00 in
11:40 58.4 °F 41.3 °F 30.42 in Calm   5.0 mph 53% 0.00 in
11:44 58.5 °F 42.4 °F 30.42 in ENE 2.0 mph 7.0 mph 55% 0.00 in
11:50 59.0 °F 43.3 °F 30.42 in ENE 3.0 mph 7.0 mph 56% 0.00 in
11:55 59.1 °F 43.4 °F 30.42 in ENE 2.0 mph 5.0 mph 56% 0.00 in
11:59 58.6 °F 42.0 °F 30.42 in ENE 2.0 mph 2.0 mph 54% 0.00 in
12:05 59.0 °F 41.9 °F 30.42 in West 1.0 mph 4.0 mph 53% 0.00 in
12:10 58.9 °F 42.3 °F 30.42 in Calm   5.0 mph 54% 0.00 in
12:14 59.6 °F 44.3 °F 30.42 in ENE 2.0 mph 5.0 mph 57% 0.00 in
12:19 59.8 °F 42.6 °F 30.42 in ENE 2.0 mph 6.0 mph 53% 0.00 in
12:25 59.6 °F 41.9 °F 30.42 in ENE 2.0 mph 6.0 mph 52% 0.00 in
12:29 59.8 °F 43.6 °F 30.42 in ENE 2.0 mph 3.0 mph 55% 0.00 in
12:34 60.2 °F 42.5 °F 30.41 in West 3.0 mph 5.0 mph 52% 0.00 in
12:39 60.4 °F 43.7 °F 30.41 in NNW 3.0 mph 4.0 mph 54% 0.00 in
12:44 60.0 °F 40.8 °F 30.41 in NNW 1.0 mph 4.0 mph 49% 0.00 in
12:49 60.4 °F 40.6 °F 30.41 in Calm   4.0 mph 48% 0.00 in
12:54 60.7 °F 39.8 °F 30.40 in East 1.0 mph 5.0 mph 46% 0.00 in
13:00 60.3 °F 40.5 °F 30.40 in SSW 2.0 mph 2.0 mph 48% 0.00 in
13:04 60.9 °F 40.5 °F 30.40 in SW 2.0 mph 5.0 mph 47% 0.00 in
13:10 60.9 °F 41.1 °F 30.40 in WNW 2.0 mph 5.0 mph 48% 0.00 in
13:15 61.5 °F 42.2 °F 30.39 in WSW 2.0 mph 5.0 mph 49% 0.00 in
13:19 61.6 °F 41.2 °F 30.39 in South 1.0 mph 6.0 mph 47% 0.00 in
13:24 60.9 °F 42.1 °F 30.39 in South 2.0 mph 6.0 mph 50% 0.00 in
13:30 61.8 °F 43.0 °F 30.39 in East 2.0 mph 6.0 mph 50% 0.00 in
13:35 62.2 °F 41.2 °F 30.38 in NNE 2.0 mph 5.0 mph 46% 0.00 in
13:40 62.5 °F 40.9 °F 30.38 in ENE 4.0 mph 4.0 mph 45% 0.00 in
13:44 62.1 °F 43.2 °F 30.38 in Calm   4.0 mph 50% 0.00 in
13:49 62.9 °F 42.9 °F 30.37 in NE 4.0 mph 5.0 mph 48% 0.00 in
13:54 63.1 °F 42.5 °F 30.37 in ENE 1.0 mph 6.0 mph 47% 0.00 in
13:59 63.2 °F 42.6 °F 30.37 in SSW 5.0 mph 5.0 mph 47% 0.00 in
14:04 63.4 °F 42.8 °F 30.36 in ENE 2.0 mph 7.0 mph 47% 0.00 in
14:09 63.0 °F 39.5 °F 30.36 in ENE 3.0 mph 5.0 mph 42% 0.00 in
14:14 62.9 °F 41.2 °F 30.36 in ENE 2.0 mph 5.0 mph 45% 0.00 in
14:19 63.2 °F 39.1 °F 30.36 in ENE 2.0 mph 7.0 mph 41% 0.00 in
14:24 63.2 °F 38.5 °F 30.36 in ENE 2.0 mph 7.0 mph 40% 0.00 in
14:29 63.1 °F 38.4 °F 30.35 in Calm   3.0 mph 40% 0.00 in
14:35 64.1 °F 39.3 °F 30.35 in NNW 4.0 mph 5.0 mph 40% 0.00 in
14:39 63.9 °F 40.3 °F 30.35 in NE 2.0 mph 5.0 mph 42% 0.00 in
14:44 63.6 °F 39.5 °F 30.35 in NNE 2.0 mph 5.0 mph 41% 0.00 in
14:49 63.3 °F 41.0 °F 30.34 in ENE 1.0 mph 4.0 mph 44% 0.00 in
14:54 63.6 °F 40.7 °F 30.34 in ENE 2.0 mph 7.0 mph 43% 0.00 in
14:59 63.3 °F 39.8 °F 30.34 in ESE 1.0 mph 4.0 mph 42% 0.00 in
15:04 64.2 °F 41.8 °F 30.34 in North 1.0 mph 6.0 mph 44% 0.00 in
15:09 64.3 °F 43.1 °F 30.34 in WNW 3.0 mph 4.0 mph 46% 0.00 in
15:14 65.0 °F 40.7 °F 30.34 in ESE 3.0 mph 5.0 mph 41% 0.00 in
15:19 64.3 °F 40.1 °F 30.34 in SSE 3.0 mph 5.0 mph 41% 0.00 in
15:24 64.5 °F 41.5 °F 30.34 in SSE 2.0 mph 3.0 mph 43% 0.00 in
15:29 64.6 °F 41.6 °F 30.33 in NNW 2.0 mph 4.0 mph 43% 0.00 in
15:34 64.5 °F 40.9 °F 30.33 in NE 5.0 mph 8.0 mph 42% 0.00 in
15:39 64.3 °F 38.8 °F 30.33 in Calm   7.0 mph 39% 0.00 in
15:44 65.3 °F 41.6 °F 30.33 in NE 4.0 mph 5.0 mph 42% 0.00 in
15:49 65.1 °F 42.0 °F 30.33 in NE 2.0 mph 5.0 mph 43% 0.00 in
15:54 65.2 °F 40.9 °F 30.33 in ENE 3.0 mph 7.0 mph 41% 0.00 in
15:59 65.0 °F 40.7 °F 30.32 in East 2.0 mph 7.0 mph 41% 0.00 in
16:04 65.0 °F 40.7 °F 30.32 in East 1.0 mph 4.0 mph 41% 0.00 in
16:10 65.4 °F 41.1 °F 30.32 in ENE 1.0 mph 3.0 mph 41% 0.00 in
16:15 64.8 °F 39.9 °F 30.32 in NE 2.0 mph 5.0 mph 40% 0.00 in
16:19 65.0 °F 39.4 °F 30.32 in NNW 1.0 mph 2.0 mph 39% 0.00 in
16:24 65.2 °F 40.3 °F 30.32 in NE 2.0 mph 7.0 mph 40% 0.00 in
16:29 65.1 °F 39.5 °F 30.32 in ENE 4.0 mph 5.0 mph 39% 0.00 in
16:34 64.8 °F 40.5 °F 30.32 in ENE 1.0 mph 4.0 mph 41% 0.00 in
16:39 64.5 °F 39.0 °F 30.32 in Calm   2.0 mph 39% 0.00 in
16:44 64.5 °F 41.5 °F 30.32 in Calm   2.0 mph 43% 0.00 in
16:49 64.1 °F 39.9 °F 30.31 in ENE 1.0 mph 3.0 mph 41% 0.00 in
16:54 64.1 °F 39.9 °F 30.31 in ENE 1.0 mph 3.0 mph 41% 0.00 in
16:59 64.1 °F 40.5 °F 30.31 in NE 1.0 mph 3.0 mph 42% 0.00 in
17:04 64.3 °F 39.4 °F 30.31 in Calm   3.0 mph 40% 0.00 in
17:09 64.4 °F 39.5 °F 30.31 in Calm   2.0 mph 40% 0.00 in
17:14 64.3 °F 40.7 °F 30.31 in NNE 2.0 mph 3.0 mph 42% 0.00 in
17:19 64.3 °F 39.4 °F 30.31 in Calm   3.0 mph 40% 0.00 in
17:24 63.9 °F 39.1 °F 30.31 in ENE 1.0 mph 3.0 mph 40% 0.00 in
17:29 63.6 °F 40.1 °F 30.31 in Calm   2.0 mph 42% 0.00 in
17:34 63.6 °F 40.1 °F 30.31 in Calm     42% 0.00 in
17:39 63.5 °F 41.2 °F 30.31 in Calm   5.0 mph 44% 0.00 in
17:44 63.3 °F 41.0 °F 30.31 in ENE 2.0 mph 4.0 mph 44% 0.00 in
17:49 63.0 °F 40.7 °F 30.31 in NE 1.0 mph 5.0 mph 44% 0.00 in
17:54 62.9 °F 42.4 °F 30.30 in ENE 2.0 mph 6.0 mph 47% 0.00 in
17:59 62.5 °F 42.5 °F 30.30 in NE 1.0 mph 6.0 mph 48% 0.00 in
18:04 62.0 °F 41.5 °F 30.30 in ENE 1.0 mph 5.0 mph 47% 0.00 in
18:09 61.6 °F 41.7 °F 30.30 in ENE 1.0 mph 3.0 mph 48% 0.00 in
18:14 61.2 °F 42.4 °F 30.30 in ENE 1.0 mph 3.0 mph 50% 0.00 in
18:19 60.9 °F 42.1 °F 30.30 in Calm   2.0 mph 50% 0.00 in
18:24 60.6 °F 42.9 °F 30.31 in Calm   2.0 mph 52% 0.00 in
18:29 60.5 °F 42.3 °F 30.30 in Calm   3.0 mph 51% 0.00 in
18:34 60.3 °F 42.6 °F 30.31 in ENE 1.0 mph 3.0 mph 52% 0.00 in
18:39 60.3 °F 42.1 °F 30.30 in ENE 1.0 mph 3.0 mph 51% 0.00 in
18:45 59.9 °F 42.2 °F 30.30 in ENE 2.0 mph 4.0 mph 52% 0.00 in
18:49 59.6 °F 42.4 °F 30.31 in ENE 1.0 mph 4.0 mph 53% 0.00 in
18:54 59.3 °F 42.2 °F 30.31 in ENE 1.0 mph 3.0 mph 53% 0.00 in
18:59 58.7 °F 42.1 °F 30.31 in Calm   1.0 mph 54% 0.00 in
19:04 58.3 °F 42.2 °F 30.31 in Calm     55% 0.00 in
19:09 57.9 °F 42.8 °F 30.30 in Calm   2.0 mph 57% 0.00 in
19:14 57.4 °F 42.3 °F 30.31 in Calm   1.0 mph 57% 0.00 in
19:19 57.0 °F 42.4 °F 30.31 in Calm     58% 0.00 in
19:24 56.6 °F 42.4 °F 30.31 in Calm     59% 0.00 in
19:29 56.7 °F 43.4 °F 30.31 in NE 1.0 mph 7.0 mph 61% 0.00 in
19:34 56.6 °F 45.0 °F 30.31 in NE 2.0 mph 7.0 mph 65% 0.00 in
19:39 56.3 °F 45.9 °F 30.31 in NE 2.0 mph 9.0 mph 68% 0.00 in
19:44 55.9 °F 46.3 °F 30.31 in NE 2.0 mph 7.0 mph 70% 0.00 in
19:49 55.6 °F 46.7 °F 30.31 in NE 2.0 mph 5.0 mph 72% 0.00 in
19:54 55.2 °F 46.7 °F 30.31 in NE 1.0 mph 5.0 mph 73% 0.00 in
19:59 54.8 °F 46.7 °F 30.31 in NE 1.0 mph 5.0 mph 74% 0.00 in
20:09 54.4 °F 46.6 °F 30.31 in NE 2.0 mph 5.0 mph 75% 0.00 in
20:14 54.2 °F 46.4 °F 30.31 in NE 1.0 mph 5.0 mph 75% 0.00 in
20:19 54.2 °F 46.8 °F 30.31 in NE 2.0 mph 7.0 mph 76% 0.00 in
20:24 54.2 °F 46.8 °F 30.32 in NE 3.0 mph 7.0 mph 76% 0.00 in
20:29 54.1 °F 46.7 °F 30.32 in NE 2.0 mph 7.0 mph 76% 0.00 in
20:34 53.9 °F 46.5 °F 30.32 in NE 6.0 mph 7.0 mph 76% 0.00 in
20:39 53.8 °F 46.4 °F 30.32 in NE 4.0 mph 7.0 mph 76% 0.00 in
20:44 53.6 °F 46.2 °F 30.32 in NE 4.0 mph 7.0 mph 76% 0.00 in
20:49 53.5 °F 46.1 °F 30.32 in ENE 4.0 mph 6.0 mph 76% 0.00 in
20:54 53.3 °F 46.3 °F 30.33 in NE 2.0 mph 6.0 mph 77% 0.00 in
20:59 53.1 °F 46.1 °F 30.32 in NE 3.0 mph 7.0 mph 77% 0.00 in
21:04 53.0 °F 46.0 °F 30.32 in NE 2.0 mph 7.0 mph 77% 0.00 in
21:09 52.6 °F 45.6 °F 30.32 in NE 1.0 mph 3.0 mph 77% 0.00 in
21:14 52.4 °F 45.7 °F 30.32 in NE 1.0 mph 4.0 mph 78% 0.00 in
21:19 52.3 °F 45.6 °F 30.32 in NE 4.0 mph 5.0 mph 78% 0.00 in
21:24 52.3 °F 45.6 °F 30.32 in Calm   4.0 mph 78% 0.00 in
21:29 52.2 °F 45.9 °F 30.33 in Calm   3.0 mph 79% 0.00 in
21:34 52.0 °F 45.7 °F 30.32 in NE 1.0 mph 4.0 mph 79% 0.00 in
21:39 51.9 °F 45.6 °F 30.32 in NE 1.0 mph 4.0 mph 79% 0.00 in
21:44 51.7 °F 45.4 °F 30.33 in Calm   1.0 mph 79% 0.00 in
21:49 51.5 °F 45.5 °F 30.33 in Calm   5.0 mph 80% 0.00 in
21:54 51.3 °F 45.0 °F 30.32 in East 1.0 mph 5.0 mph 79% 0.00 in
21:59 51.3 °F 45.3 °F 30.32 in East 1.0 mph 3.0 mph 80% 0.00 in
22:04 51.2 °F 45.2 °F 30.33 in ENE 1.0 mph 5.0 mph 80% 0.00 in
22:09 51.0 °F 45.0 °F 30.33 in East 1.0 mph 5.0 mph 80% 0.00 in
22:14 50.9 °F 44.9 °F 30.33 in East 1.0 mph 6.0 mph 80% 0.00 in
22:19 50.6 °F 44.7 °F 30.33 in Calm   3.0 mph 80% 0.00 in
22:24 50.5 °F 44.9 °F 30.33 in East 3.0 mph 3.0 mph 81% 0.00 in
22:29 50.4 °F 44.8 °F 30.33 in Calm   3.0 mph 81% 0.00 in
22:34 50.1 °F 44.5 °F 30.33 in Calm   3.0 mph 81% 0.00 in
22:39 49.9 °F 44.6 °F 30.33 in Calm     82% 0.00 in
22:44 49.7 °F 44.4 °F 30.33 in Calm     82% 0.00 in
22:49 49.6 °F 44.3 °F 30.33 in Calm     82% 0.00 in
22:54 49.3 °F 44.0 °F 30.33 in Calm     82% 0.00 in
22:59 49.1 °F 44.2 °F 30.33 in Calm     83% 0.00 in
23:04 49.0 °F 44.1 °F 30.33 in Calm   3.0 mph 83% 0.00 in
23:09 48.9 °F 44.0 °F 30.33 in Calm   3.0 mph 83% 0.00 in
23:14 48.7 °F 43.8 °F 30.33 in Calm     83% 0.00 in
23:19 48.5 °F 43.9 °F 30.33 in Calm     84% 0.00 in
23:24 48.4 °F 43.8 °F 30.33 in Calm     84% 0.00 in
23:29 48.2 °F 43.6 °F 30.33 in Calm     84% 0.00 in
23:34 48.0 °F 43.4 °F 30.33 in Calm     84% 0.00 in
23:39 47.9 °F 43.3 °F 30.33 in Calm     84% 0.00 in
23:44 47.8 °F 43.2 °F 30.33 in Calm     84% 0.00 in
23:49 47.8 °F 43.2 °F 30.33 in Calm   2.0 mph 84% 0.00 in
23:54 47.7 °F 43.1 °F 30.33 in Calm   3.0 mph 84% 0.00 in
23:59 47.7 °F 43.1 °F 30.33 in Calm     84% 0.00 in
Buffalo, New York, USA
Compliments of Weather Underground - 2.5 mb